Time;durP1;ratioP1;P1;durP2;ratioP2;P2;SDS_P1;SDS_P2;PMS_P1;PMS_P2;Temp;Humidity;BMP_temperature;BMP_pressure;BME280_temperature;BME280_humidity;BME280_pressure;Samples;Min_cycle;Max_cycle;Signal;HPM_P1;HPM_P2
2022/03/19 00:01:34;;;;;;;;;105.00;81.00;;;;;-0.12;68.46;101859.03;6278548;20;3684607;-48
2022/03/19 00:04:04;;;;;;;;;91.00;66.00;;;;;-0.46;69.57;101852.28;6279752;20;2853408;-46
2022/03/19 00:06:39;;;;;;;;;113.00;89.33;;;;;-0.53;70.38;101845.97;6281262;20;3696077;-44
2022/03/19 00:09:10;;;;;;;;;112.00;85.33;;;;;-0.81;70.63;101851.59;6277450;20;3697180;-46
2022/03/19 00:11:40;;;;;;;;;115.00;84.00;;;;;-0.55;71.12;101847.72;6281343;20;3696077;-46
2022/03/19 00:14:12;;;;;;;;;111.00;87.33;;;;;-0.83;70.92;101846.28;6278269;20;3686709;-45
2022/03/19 00:16:42;;;;;;;;;132.67;107.00;;;;;-0.56;70.08;101851.19;6278159;20;3702687;-45
2022/03/19 00:19:12;;;;;;;;;102.33;75.33;;;;;-1.20;71.58;101844.66;6277936;20;3678436;-44
2022/03/19 00:21:42;;;;;;;;;93.33;70.67;;;;;-0.72;70.38;101851.78;6279535;20;2884911;-44
2022/03/19 00:24:11;;;;;;;;;99.33;73.33;;;;;-0.52;69.61;101844.25;6311052;20;3654404;-46
2022/03/19 00:26:41;;;;;;;;;102.67;73.67;;;;;-1.20;71.84;101844.66;6312454;20;3684804;-44
2022/03/19 00:29:11;;;;;;;;;101.00;72.67;;;;;-1.11;71.21;101845.75;6275535;20;3666961;-44
2022/03/19 00:31:41;;;;;;;;;107.67;79.67;;;;;-1.14;72.51;101836.88;6312246;20;3665878;-47
2022/03/19 00:34:10;;;;;;;;;101.00;77.00;;;;;-1.09;72.34;101834.34;6308852;20;3665840;-44
2022/03/19 00:36:40;;;;;;;;;101.67;74.67;;;;;-0.97;71.16;101838.13;6310508;20;3667023;-44
2022/03/19 00:39:10;;;;;;;;;102.33;77.33;;;;;-0.75;70.45;101831.50;6314495;20;3660783;-44
2022/03/19 00:41:39;;;;;;;;;107.00;76.33;;;;;-0.55;69.96;101823.09;6316547;20;3676253;-45
2022/03/19 00:44:09;;;;;;;;;109.33;82.00;;;;;-0.71;71.23;101825.44;6316197;20;3688812;-45
2022/03/19 00:46:39;;;;;;;;;103.67;79.33;;;;;-0.93;71.73;101823.22;6284495;20;3663765;-47
2022/03/19 00:49:08;;;;;;;;;96.67;73.00;;;;;-0.79;71.61;101821.78;6315368;20;3642926;-48
2022/03/19 00:51:39;;;;;;;;;99.00;78.00;;;;;-0.78;71.23;101823.53;6317256;20;3649228;-44
2022/03/19 00:54:10;;;;;;;;;97.67;72.00;;;;;-0.72;71.00;101823.66;6315709;20;3668007;-45
2022/03/19 00:56:40;;;;;;;;;110.67;74.67;;;;;-1.08;71.43;101817.66;6316588;20;3675215;-44
2022/03/19 00:59:11;;;;;;;;;115.33;84.00;;;;;-0.42;70.26;101811.91;6280495;20;3689830;-45
2022/03/19 01:01:41;;;;;;;;;103.67;75.33;;;;;-0.26;70.06;101818.34;6282907;20;3688767;-45
2022/03/19 01:04:11;;;;;;;;;110.00;84.00;;;;;-0.53;70.86;101814.31;6282621;20;3696189;-45
2022/03/19 01:06:41;;;;;;;;;103.00;76.33;;;;;-0.95;71.92;101810.03;6281718;20;3678344;-46
2022/03/19 01:09:10;;;;;;;;;103.67;76.33;;;;;-0.90;73.08;101813.63;6282508;20;3663901;-47
2022/03/19 01:11:40;;;;;;;;;98.33;76.00;;;;;-0.27;71.88;101816.53;6316250;20;3636842;-44
2022/03/19 01:14:09;;;;;;;;;106.33;76.00;;;;;-0.18;71.58;101815.81;6316271;20;3672173;-45
2022/03/19 01:16:39;;;;;;;;;103.00;75.00;;;;;-0.31;71.60;101815.59;6282767;20;3677782;-47
2022/03/19 01:19:09;;;;;;;;;92.00;70.33;;;;;0.02;71.77;101819.66;6315929;20;2887916;-44
2022/03/19 01:21:39;;;;;;;;;100.33;72.67;;;;;-0.15;71.73;101815.88;6316999;20;3673150;-44
2022/03/19 01:24:07;;;;;;;;;84.00;63.00;;;;;0.05;71.59;101811.78;6282759;20;2869019;-45
2022/03/19 01:26:37;;;;;;;;;104.33;79.00;;;;;-0.12;72.20;101821.19;6285220;20;3667954;-44
2022/03/19 01:29:06;;;;;;;;;98.33;76.00;;;;;-0.10;71.77;101814.19;6317185;20;3646479;-46
2022/03/19 01:31:36;;;;;;;;;101.00;75.00;;;;;-0.36;72.83;101817.28;6315300;20;3667126;-45
2022/03/19 01:34:06;;;;;;;;;100.00;73.00;;;;;0.12;70.92;101807.50;6315030;20;3670044;-44
2022/03/19 01:36:35;;;;;;;;;104.67;76.00;;;;;-0.22;71.68;101805.19;6280164;20;3673187;-45
2022/03/19 01:39:05;;;;;;;;;93.67;72.67;;;;;0.00;71.90;101797.63;6313901;20;3648652;-44
2022/03/19 01:41:42;;;;;;;;;95.67;71.67;;;;;-0.20;72.45;101796.44;6314218;20;3651295;-46
2022/03/19 01:44:22;;;;;;;;;105.67;76.00;;;;;-0.02;72.77;101791.44;6314028;20;3678391;-44
2022/03/19 01:47:08;;;;;;;;;98.00;75.67;;;;;-0.08;72.47;101786.03;6282400;20;3657554;-46
2022/03/19 01:49:38;;;;;;;;;95.67;72.67;;;;;-0.23;72.74;101795.50;6314801;20;3658581;-44
2022/03/19 01:52:08;;;;;;;;;94.33;71.00;;;;;0.13;71.63;101788.13;6314052;20;3656453;-46
2022/03/19 01:54:42;;;;;;;;;94.67;71.33;;;;;0.00;71.80;101784.44;6315896;20;2890903;-45
2022/03/19 01:57:19;;;;;;;;;96.33;72.67;;;;;-0.06;72.95;101779.03;6313978;20;3652727;-45
2022/03/19 01:59:50;;;;;;;;;104.33;69.67;;;;;-0.14;72.14;101772.75;6312673;20;3676241;-48
2022/03/19 02:02:21;;;;;;;;;98.67;72.00;;;;;-0.40;71.80;101783.75;6282594;20;3682510;-48
2022/03/19 02:04:53;;;;;;;;;95.00;73.00;;;;;-0.47;71.98;101771.34;6314189;20;2891109;-45
2022/03/19 02:07:23;;;;;;;;;100.00;73.00;;;;;-0.27;71.83;101775.19;6315253;20;3663899;-46
2022/03/19 02:10:03;;;;;;;;;102.67;74.00;;;;;-0.87;73.82;101767.97;6312292;20;3661779;-47
2022/03/19 02:12:33;;;;;;;;;97.33;73.67;;;;;0.08;71.51;101771.31;6315614;20;3638808;-46
2022/03/19 02:15:04;;;;;;;;;89.00;70.00;;;;;-0.16;72.04;101777.13;6315196;20;2819008;-50
2022/03/19 02:17:34;;;;;;;;;98.33;72.67;;;;;-0.61;73.68;101773.72;6282042;20;3659616;-46
2022/03/19 02:20:06;;;;;;;;;99.67;72.67;;;;;-0.51;73.88;101777.41;6310279;20;3644011;-51
2022/03/19 02:22:36;;;;;;;;;100.33;76.33;;;;;-0.50;74.82;101773.91;6312029;20;3640876;-45
2022/03/19 02:27:55;;;;;;;;;98.00;72.00;;;;;0.31;72.37;101769.03;6314261;20;3657534;-46
2022/03/19 02:30:25;;;;;;;;;94.00;70.00;;;;;-0.01;72.81;101759.75;6313259;20;3659683;-46
2022/03/19 02:32:55;;;;;;;;;99.67;73.00;;;;;-0.10;73.38;101751.72;6312745;20;3687761;-49
2022/03/19 02:35:25;;;;;;;;;104.33;77.00;;;;;-0.12;73.44;101757.84;6278415;20;3675254;-47
2022/03/19 02:37:55;;;;;;;;;108.33;79.00;;;;;-0.09;72.88;101748.19;6313420;20;3686703;-46
2022/03/19 02:40:24;;;;;;;;;106.33;76.67;;;;;-0.24;72.99;101754.16;6279417;20;3671062;-50
2022/03/19 02:42:56;;;;;;;;;101.67;75.00;;;;;0.13;72.45;101740.59;6279155;20;3678498;-47
2022/03/19 02:45:26;;;;;;;;;113.00;80.33;;;;;-0.20;72.79;101751.56;6311531;20;3690868;-47
2022/03/19 02:47:59;;;;;;;;;97.33;73.00;;;;;-0.37;73.83;101740.69;6279613;20;3652380;-50
2022/03/19 02:50:36;;;;;;;;;103.33;75.33;;;;;-0.25;72.37;101746.19;6312244;20;3668023;-52
2022/03/19 02:53:11;;;;;;;;;94.67;71.33;;;;;-0.29;73.51;101749.63;6315507;20;3654447;-49
2022/03/19 02:55:42;;;;;;;;;94.33;69.00;;;;;-0.24;71.57;101755.88;6311306;20;3662704;-49
2022/03/19 02:58:12;;;;;;;;;93.67;72.67;;;;;-0.22;71.61;101752.41;6314544;20;2885739;-48
2022/03/19 03:00:41;;;;;;;;;94.67;72.33;;;;;-0.32;71.17;101753.09;6310000;20;3636825;-48
2022/03/19 03:03:11;;;;;;;;;98.00;72.67;;;;;-0.17;70.56;101746.31;6313254;20;3660650;-46
2022/03/19 03:05:41;;;;;;;;;99.67;71.67;;;;;-0.29;70.62;101760.19;6313968;20;3637702;-52
2022/03/19 03:08:11;;;;;;;;;104.00;75.67;;;;;-0.65;71.69;101766.63;6313347;20;3688765;-47
2022/03/19 03:10:41;;;;;;;;;98.33;73.67;;;;;-0.98;73.16;101756.34;6276220;20;3655467;-48
2022/03/19 03:13:10;;;;;;;;;90.33;67.00;;;;;-0.46;71.29;101752.00;6308855;20;2904502;-48
2022/03/19 03:15:40;;;;;;;;;96.33;70.00;;;;;-0.52;71.87;101755.44;6312651;20;2902461;-46
2022/03/19 03:18:10;;;;;;;;;97.00;71.33;;;;;-0.69;72.64;101755.13;6311425;20;3646054;-46
2022/03/19 03:20:39;;;;;;;;;97.67;73.67;;;;;-0.61;71.93;101746.47;6310414;20;3657648;-48
2022/03/19 03:23:09;;;;;;;;;93.00;68.67;;;;;-0.78;72.48;101754.09;6310129;20;2896184;-46
2022/03/19 03:25:38;;;;;;;;;93.67;68.67;;;;;-0.43;72.80;101748.53;6313952;20;2910717;-48
2022/03/19 03:28:08;;;;;;;;;98.67;72.67;;;;;-0.09;71.33;101752.59;6313583;20;3655445;-46
2022/03/19 03:30:38;;;;;;;;;100.33;72.00;;;;;-0.64;72.01;101752.56;6311010;20;3660675;-45
2022/03/19 03:33:08;;;;;;;;;97.00;70.67;;;;;-0.58;72.77;101752.69;6313632;20;3654535;-48
2022/03/19 03:35:36;;;;;;;;;97.00;74.00;;;;;-0.72;73.60;101755.06;6311876;20;2609607;-46
2022/03/19 03:38:06;;;;;;;;;103.00;73.67;;;;;-0.67;74.32;101753.41;6281673;20;3680458;-45
2022/03/19 03:40:35;;;;;;;;;95.00;71.67;;;;;-0.59;73.41;101763.22;6276339;20;2886837;-46
2022/03/19 03:43:05;;;;;;;;;105.67;78.67;;;;;-1.57;75.28;101754.28;6311590;20;3667965;-44
2022/03/19 03:45:35;;;;;;;;;108.67;79.00;;;;;-0.98;74.22;101759.84;6313472;20;3687744;-44
2022/03/19 03:48:05;;;;;;;;;104.33;76.00;;;;;-0.68;73.56;101756.91;6277550;20;3676332;-44
2022/03/19 03:50:39;;;;;;;;;113.67;95.00;;;;;-0.98;74.03;101744.03;6310611;20;3688815;-45
2022/03/19 03:53:10;;;;;;;;;113.33;84.33;;;;;-0.96;73.98;101741.44;6279819;20;3682538;-44
2022/03/19 03:55:39;;;;;;;;;118.67;92.00;;;;;-0.91;75.24;101745.06;6276988;20;3689774;-44
2022/03/19 03:58:09;;;;;;;;;111.00;88.33;;;;;-0.50;74.24;101755.44;6279723;20;3685620;-48
2022/03/19 04:00:39;;;;;;;;;109.33;80.67;;;;;-0.11;72.85;101759.59;6276893;20;3688843;-46
2022/03/19 04:03:09;;;;;;;;;112.33;90.00;;;;;-0.01;72.91;101758.88;6275648;20;3689930;-46
2022/03/19 04:05:39;;;;;;;;;116.33;94.00;;;;;0.06;73.08;101752.81;6278828;20;3675195;-44
2022/03/19 04:08:09;;;;;;;;;117.33;90.00;;;;;-0.17;73.85;101747.19;6275388;20;3700224;-47
2022/03/19 04:10:39;;;;;;;;;128.67;104.33;;;;;-0.25;74.17;101741.78;6279216;20;3702304;-43
2022/03/19 04:13:09;;;;;;;;;122.67;93.67;;;;;-0.34;74.68;101744.31;6277830;20;3684012;-45
2022/03/19 04:15:39;;;;;;;;;115.67;84.33;;;;;-0.17;74.27;101741.03;6278569;20;3699276;-46
2022/03/19 04:18:09;;;;;;;;;111.33;88.33;;;;;-0.68;76.84;101741.09;6279249;20;3686680;-44
2022/03/19 04:20:39;;;;;;;;;109.00;85.33;;;;;-1.03;75.67;101737.78;6279204;20;3695085;-44
2022/03/19 04:23:09;;;;;;;;;108.00;79.00;;;;;-1.07;75.09;101745.63;6279635;20;3671637;-48
2022/03/19 04:25:40;;;;;;;;;107.33;78.67;;;;;-1.24;75.97;101743.53;6313384;20;3675239;-46
2022/03/19 04:28:11;;;;;;;;;108.67;83.00;;;;;-1.35;75.82;101735.41;6313434;20;3672265;-50
2022/03/19 04:30:41;;;;;;;;;109.00;82.00;;;;;-1.47;77.01;101740.47;6308785;20;3687746;-50
2022/03/19 04:33:11;;;;;;;;;111.67;86.33;;;;;-1.26;76.83;101740.00;6312091;20;3683669;-48
2022/03/19 04:38:28;;;;;;;;;116.33;91.33;;;;;-0.87;75.70;101738.97;6280597;20;3696619;-49
2022/03/19 04:40:59;;;;;;;;;114.33;84.33;;;;;-0.77;74.83;101746.19;6279195;20;3699200;-46
2022/03/19 04:43:29;;;;;;;;;123.67;94.67;;;;;-1.08;74.91;101749.09;6277051;20;3703451;-46
2022/03/19 04:45:59;;;;;;;;;119.33;86.67;;;;;-1.30;75.56;101753.97;6278378;20;3701260;-46
2022/03/19 04:48:30;;;;;;;;;114.00;94.67;;;;;-0.92;75.47;101748.56;6280678;20;3694058;-46
2022/03/19 04:50:59;;;;;;;;;103.33;75.67;;;;;-1.54;76.85;101754.34;6278762;20;3688875;-47
2022/03/19 04:53:30;;;;;;;;;104.67;74.67;;;;;-1.46;76.13;101746.59;6308375;20;3698167;-47
2022/03/19 04:55:59;;;;;;;;;123.33;105.33;;;;;-1.13;75.59;101741.13;6312217;20;3707505;-47
2022/03/19 04:58:29;;;;;;;;;121.67;108.67;;;;;-0.97;75.02;101751.09;6275030;20;3696127;-47
2022/03/19 05:00:59;;;;;;;;;124.00;107.67;;;;;-1.10;75.15;101757.00;6279366;20;3699192;-49
2022/03/19 05:03:30;;;;;;;;;167.75;130.25;;;;;-1.21;75.93;101769.06;6276834;20;3733726;-47
2022/03/19 05:06:00;;;;;;;;;142.67;109.33;;;;;-0.71;74.23;101766.50;6312293;20;3720148;-45
2022/03/19 05:08:30;;;;;;;;;115.33;99.67;;;;;-0.61;73.37;101770.19;6279007;20;3694033;-48
2022/03/19 05:11:16;;;;;;;;;111.00;86.33;;;;;-0.88;75.18;101768.84;6278319;20;3697259;-46
2022/03/19 05:13:53;;;;;;;;;119.50;97.50;;;;;-0.77;74.84;101767.28;6278706;20;3566926;-50
2022/03/19 05:16:22;;;;;;;;;114.00;99.67;;;;;-0.86;75.33;101769.75;6310287;20;3671050;-46
2022/03/19 05:18:52;;;;;;;;;128.67;96.67;;;;;-0.47;74.69;101777.50;6277023;20;3712718;-49
2022/03/19 05:21:22;;;;;;;;;129.00;101.00;;;;;-0.35;73.93;101778.56;6278396;20;3705507;-46
2022/03/19 05:23:52;;;;;;;;;156.67;118.67;;;;;-0.20;73.24;101781.47;6279904;20;3726245;-47
2022/03/19 05:26:22;;;;;;;;;108.00;86.67;;;;;-0.45;74.67;101777.50;6284460;20;3696028;-46
2022/03/19 05:28:54;;;;;;;;;113.00;85.67;;;;;-0.41;74.30;101783.75;6285518;20;3690833;-47
2022/03/19 05:31:35;;;;;;;;;102.33;77.00;;;;;0.17;72.68;101785.56;6282641;20;3674239;-47
2022/03/19 05:36:53;;;;;;;;;97.33;72.00;;;;;0.46;71.72;101782.44;6317077;20;3645057;-46
2022/03/19 05:39:23;;;;;;;;;103.00;73.67;;;;;0.99;70.46;101779.59;6311541;20;3672129;-48
2022/03/19 05:41:54;;;;;;;;;117.33;88.00;;;;;1.12;69.34;101790.31;6280023;20;3695011;-48
2022/03/19 05:44:24;;;;;;;;;107.67;79.33;;;;;1.00;70.30;101784.03;6280504;20;3680427;-48
2022/03/19 05:46:59;;;;;;;;;100.33;74.00;;;;;1.42;68.96;101780.06;6282124;20;3666906;-43
2022/03/19 05:49:30;;;;;;;;;102.67;78.33;;;;;1.23;69.99;101780.72;6313538;20;3679410;-47
2022/03/19 05:52:00;;;;;;;;;92.67;69.67;;;;;1.64;67.98;101781.13;6279336;20;3656534;-48
2022/03/19 05:54:29;;;;;;;;;97.67;72.67;;;;;1.75;67.19;101782.09;6312277;20;3656564;-47
2022/03/19 05:56:59;;;;;;;;;98.00;74.00;;;;;2.04;66.62;101783.22;6282346;20;3665948;-49
2022/03/19 05:59:29;;;;;;;;;90.67;69.67;;;;;1.42;67.46;101782.69;6314813;20;3652323;-46
2022/03/19 06:01:59;;;;;;;;;102.67;75.00;;;;;2.58;64.43;101781.75;6314929;20;3685665;-47
2022/03/19 06:04:28;;;;;;;;;100.33;72.00;;;;;2.56;63.01;101788.84;6313188;20;3655455;-49
2022/03/19 06:06:58;;;;;;;;;101.67;75.33;;;;;2.70;63.49;101791.56;6282650;20;3687746;-47
2022/03/19 06:09:28;;;;;;;;;105.33;82.00;;;;;3.02;62.30;101789.03;6280169;20;3703406;-47
2022/03/19 06:11:58;;;;;;;;;96.33;80.33;;;;;3.96;60.40;101796.25;6283629;20;3653527;-48
2022/03/19 06:14:28;;;;;;;;;92.67;69.33;;;;;3.95;58.98;101786.50;6314067;20;3639897;-48
2022/03/19 06:16:57;;;;;;;;;90.33;67.00;;;;;4.66;56.86;101799.69;6314341;20;3657565;-45
2022/03/19 06:19:27;;;;;;;;;91.00;66.00;;;;;4.82;55.56;101798.72;6315458;20;3641936;-44
2022/03/19 06:21:57;;;;;;;;;86.67;66.67;;;;;4.64;55.97;101797.91;6314448;20;3635767;-45
2022/03/19 06:24:27;;;;;;;;;83.67;63.67;;;;;3.86;56.46;101799.78;6315693;20;3642808;-45
2022/03/19 06:26:56;;;;;;;;;74.33;58.67;;;;;4.38;56.45;101791.75;6314039;20;2869089;-44
2022/03/19 06:29:26;;;;;;;;;86.00;60.67;;;;;4.48;54.85;101797.97;6311033;20;3666879;-45
2022/03/19 06:31:56;;;;;;;;;79.67;61.33;;;;;3.42;55.32;101799.75;6310705;20;2885744;-44
2022/03/19 06:34:25;;;;;;;;;72.00;58.33;;;;;3.45;56.22;101795.34;6313097;20;2879490;-45
2022/03/19 06:39:42;;;;;;;;;71.50;52.50;;;;;3.69;56.84;101798.91;6280942;20;2877408;-45
2022/03/19 06:42:11;;;;;;;;;80.33;60.33;;;;;3.03;57.16;101789.03;6282183;20;3626257;-45
2022/03/19 06:44:41;;;;;;;;;69.00;54.33;;;;;3.82;55.23;101797.13;6313189;20;2878541;-45
2022/03/19 06:47:10;;;;;;;;;69.00;55.00;;;;;3.92;54.86;101793.59;6314006;20;2863929;-44
2022/03/19 06:49:39;;;;;;;;;77.33;56.33;;;;;4.25;57.26;101802.44;6281632;20;2884669;-47
2022/03/19 06:52:10;;;;;;;;;76.67;59.00;;;;;4.29;53.73;101806.84;6313130;20;3637765;-45
2022/03/19 06:54:40;;;;;;;;;83.33;59.00;;;;;4.30;53.60;101798.00;6313253;20;3655431;-47
2022/03/19 06:57:09;;;;;;;;;71.67;57.00;;;;;4.38;53.27;101796.19;6313940;20;2875790;-44
2022/03/19 06:59:38;;;;;;;;;74.50;58.00;;;;;4.96;52.16;101806.66;6310051;20;2861876;-44
2022/03/19 07:02:07;;;;;;;;;80.33;62.33;;;;;4.66;52.17;101809.41;6284562;20;3632592;-45
2022/03/19 07:04:37;;;;;;;;;74.00;54.00;;;;;4.87;51.43;101811.13;6309208;20;3644027;-45
2022/03/19 07:07:07;;;;;;;;;75.00;54.67;;;;;4.22;52.04;101807.75;6314923;20;3638937;-44
2022/03/19 07:09:36;;;;;;;;;73.67;58.00;;;;;4.52;51.70;101802.34;6313005;20;2874267;-44
2022/03/19 07:12:06;;;;;;;;;65.00;52.50;;;;;4.28;51.17;101807.75;6308806;20;2500267;-45
2022/03/19 07:14:36;;;;;;;;;77.33;58.33;;;;;4.83;51.16;101804.94;6282841;20;3644134;-46
2022/03/19 07:17:05;;;;;;;;;71.67;56.00;;;;;4.69;51.11;101812.09;6311112;20;3632499;-46
2022/03/19 07:19:35;;;;;;;;;71.00;57.00;;;;;6.57;47.24;101808.13;6312402;20;2871178;-46
2022/03/19 07:22:05;;;;;;;;;66.33;53.00;;;;;7.08;45.80;101820.88;6281138;20;2881585;-44
2022/03/19 07:24:36;;;;;;;;;67.33;53.33;;;;;6.13;47.33;101814.81;6311689;20;2873275;-46
2022/03/19 07:27:06;;;;;;;;;63.50;52.00;;;;;5.73;48.83;101811.53;6313772;20;2863773;-47
2022/03/19 07:29:35;;;;;;;;;69.67;53.00;;;;;5.22;48.95;101805.66;6282373;20;2876274;-45
2022/03/19 07:32:05;;;;;;;;;74.33;55.33;;;;;5.81;48.81;101817.69;6313177;20;3648124;-49
2022/03/19 07:34:39;;;;;;;;;74.33;56.00;;;;;5.85;48.68;101821.22;6313892;20;3643961;-48
2022/03/19 07:37:09;;;;;;;;;73.33;55.33;;;;;6.11;48.56;101823.72;6311340;20;3629438;-46
2022/03/19 07:39:38;;;;;;;;;69.33;53.00;;;;;5.39;50.32;101817.06;6313268;20;3632742;-45
2022/03/19 07:42:09;;;;;;;;;75.67;58.00;;;;;5.58;50.08;101816.97;6310142;20;3637756;-44
2022/03/19 07:44:38;;;;;;;;;75.00;56.33;;;;;4.43;52.17;101814.81;6314347;20;3642066;-46
2022/03/19 07:47:07;;;;;;;;;66.50;53.00;;;;;4.83;51.95;101810.25;6313826;20;2851447;-44
2022/03/19 07:49:36;;;;;;;;;76.00;57.50;;;;;5.16;51.73;101824.31;6279546;20;2876327;-46
2022/03/19 07:52:08;;;;;;;;;78.33;58.33;;;;;5.39;51.14;101818.88;6282244;20;2898254;-48
2022/03/19 07:54:38;;;;;;;;;72.33;55.00;;;;;6.10;50.38;101824.59;6309821;20;3623215;-47
2022/03/19 07:57:10;;;;;;;;;68.33;53.00;;;;;6.33;50.08;101827.94;6313703;20;3633614;-47
2022/03/19 07:59:40;;;;;;;;;76.33;57.33;;;;;6.20;50.28;101834.28;6310834;20;3629462;-45
2022/03/19 08:02:09;;;;;;;;;77.00;58.50;;;;;6.56;50.25;101829.50;6312849;20;2870228;-46
2022/03/19 08:04:38;;;;;;;;;67.00;53.00;;;;;6.95;49.88;101830.84;6281931;20;2875310;-45
2022/03/19 08:07:08;;;;;;;;;78.33;58.00;;;;;7.09;48.86;101828.00;6313639;20;3637908;-45
2022/03/19 08:09:38;;;;;;;;;72.67;54.00;;;;;6.46;50.67;101831.38;6314968;20;3626351;-45
2022/03/19 08:12:09;;;;;;;;;67.33;54.00;;;;;7.09;48.87;101830.66;6315077;20;2880436;-46
2022/03/19 08:14:38;;;;;;;;;64.67;53.00;;;;;7.61;47.89;101829.03;6317787;20;2870133;-44
2022/03/19 08:17:08;;;;;;;;;71.00;54.00;;;;;7.64;48.21;101829.03;6315569;20;3651289;-44
2022/03/19 08:19:38;;;;;;;;;67.33;50.33;;;;;7.74;46.82;101827.06;6314993;20;3614829;-45
2022/03/19 08:22:27;;;;;;;;;62.33;48.00;;;;;7.70;46.75;101827.13;6312296;20;2876356;-44
2022/03/19 08:24:58;;;;;;;;;64.67;53.00;;;;;7.48;48.09;101817.69;6316399;20;2872136;-44
2022/03/19 08:27:28;;;;;;;;;70.00;54.00;;;;;8.18;47.49;101822.81;6312425;20;2881499;-44
2022/03/19 08:29:57;;;;;;;;;63.00;51.00;;;;;8.12;47.07;101819.31;6315209;20;2753355;-45
2022/03/19 08:32:25;;;;;;;;;61.50;49.00;;;;;8.80;46.01;101818.13;6278647;20;2856493;-45
2022/03/19 08:34:55;;;;;;;;;69.00;53.33;;;;;8.89;45.99;101823.28;6284072;20;3639893;-50
2022/03/19 08:37:26;;;;;;;;;68.67;55.00;;;;;8.70;45.70;101821.88;6314666;20;3621166;-50
2022/03/19 08:42:51;;;;;;;;;98.67;94.00;;;;;8.30;46.43;101822.59;6316475;20;3665836;-50
2022/03/19 08:45:23;;;;;;;;;62.67;49.33;;;;;8.33;46.98;101822.53;6312737;20;2864903;-47
2022/03/19 08:47:52;;;;;;;;;59.00;46.50;;;;;8.42;47.20;101826.88;6313754;20;2864822;-51
2022/03/19 08:50:22;;;;;;;;;66.67;51.33;;;;;8.12;47.58;101816.66;6282392;20;3618954;-47
2022/03/19 08:52:51;;;;;;;;;58.00;48.00;;;;;8.49;46.66;101818.69;6316048;20;2854446;-48
2022/03/19 08:55:21;;;;;;;;;67.00;52.33;;;;;8.98;45.76;101811.50;6280701;20;2865041;-48
2022/03/19 08:57:49;;;;;;;;;51.00;43.00;;;;;8.91;45.36;101817.91;6313253;20;2846110;-46
2022/03/19 09:00:19;;;;;;;;;59.00;39.33;;;;;8.76;45.43;101808.34;6287777;20;2868083;-49
2022/03/19 09:02:49;;;;;;;;;60.50;49.00;;;;;9.83;43.86;101816.72;6316851;20;2848215;-45
2022/03/19 09:05:20;;;;;;;;;69.00;51.67;;;;;8.97;46.26;101801.69;6286663;20;3638798;-48
2022/03/19 09:07:50;;;;;;;;;66.00;52.00;;;;;9.48;46.86;101808.59;6316719;20;3631556;-48
2022/03/19 09:10:20;;;;;;;;;59.67;45.00;;;;;9.67;45.24;101812.66;6317153;20;3621095;-49
2022/03/19 09:12:50;;;;;;;;;58.33;46.00;;;;;10.03;45.41;101810.88;6321228;20;2858708;-46
2022/03/19 09:15:19;;;;;;;;;61.00;50.00;;;;;10.10;44.54;101814.25;6318071;20;3617141;-49
2022/03/19 09:17:48;;;;;;;;;66.00;50.00;;;;;10.17;43.11;101813.19;6318388;20;3611740;-48
2022/03/19 09:20:17;;;;;;;;;56.50;46.50;;;;;10.77;42.86;101815.19;6315902;20;2873271;-48
2022/03/19 09:22:47;;;;;;;;;52.33;40.33;;;;;10.05;42.80;101813.50;6284996;20;3607859;-51
2022/03/19 09:25:16;;;;;;;;;46.00;37.50;;;;;10.39;43.10;101815.34;6321284;20;2848182;-46
2022/03/19 09:27:45;;;;;;;;;57.33;44.00;;;;;10.17;42.98;101807.81;6285134;20;3620019;-45
2022/03/19 09:30:14;;;;;;;;;45.00;37.50;;;;;10.20;43.42;101809.56;6319353;20;2869124;-51
2022/03/19 09:32:44;;;;;;;;;55.00;44.50;;;;;11.01;42.13;101804.66;6287193;20;2850265;-51
2022/03/19 09:35:33;;;;;;;;;54.00;43.00;;;;;11.20;40.92;101797.78;6290159;20;2859627;-50
2022/03/19 09:38:03;;;;;;;;;33.50;32.50;;;;;10.45;41.11;101801.75;6287846;20;2855547;-48
2022/03/19 09:40:33;;;;;;;;;52.00;39.00;;;;;10.43;41.70;101798.25;6284913;20;3635649;-50
2022/03/19 09:43:03;;;;;;;;;54.67;40.67;;;;;11.28;39.56;101802.94;6315193;20;3618978;-46
2022/03/19 09:45:33;;;;;;;;;46.00;41.00;;;;;10.47;38.74;101802.59;6317105;20;2835949;-48
2022/03/19 09:48:04;;;;;;;;;54.67;41.00;;;;;11.63;38.68;101801.81;6288133;20;2860768;-47
2022/03/19 09:50:35;;;;;;;;;39.67;34.67;;;;;10.85;37.94;101789.88;6318033;20;2845142;-48
2022/03/19 09:53:06;;;;;;;;;52.00;42.00;;;;;10.70;39.42;101800.16;6321019;20;3595033;-47
2022/03/19 09:55:39;;;;;;;;;52.00;43.33;;;;;11.19;37.83;101798.75;6283871;20;2850252;-49
2022/03/19 09:58:09;;;;;;;;;50.33;41.33;;;;;10.81;39.34;101799.84;6319427;20;2868110;-50
2022/03/19 10:00:40;;;;;;;;;55.67;41.00;;;;;10.24;39.84;101787.97;6317964;20;2857696;-51
2022/03/19 10:03:13;;;;;;;;;46.67;39.33;;;;;11.33;39.18;101789.38;6316802;20;3599208;-51
2022/03/19 10:08:39;;;;;;;;;52.33;40.00;;;;;10.97;38.83;101789.53;6287878;20;2858683;-43
2022/03/19 10:11:15;;;;;;;;;44.67;37.67;;;;;10.80;36.67;101791.84;6317753;20;2871220;-48
2022/03/19 10:13:49;;;;;;;;;43.33;35.33;;;;;10.90;37.13;101793.31;6320798;20;3607903;-46
2022/03/19 10:16:36;;;;;;;;;37.50;32.00;;;;;11.04;37.53;101790.25;6287876;20;2865895;-45
2022/03/19 10:19:07;;;;;;;;;44.67;36.00;;;;;11.11;36.71;101781.97;6286769;20;3621121;-44
2022/03/19 10:21:41;;;;;;;;;64.33;50.67;;;;;11.77;37.31;101787.94;6320435;20;3629394;-47
2022/03/19 10:24:28;;;;;;;;;53.00;41.33;;;;;12.04;35.27;101786.19;6288652;20;2865005;-45
2022/03/19 10:26:57;;;;;;;;;43.00;36.00;;;;;11.98;35.61;101785.47;6316001;20;2857586;-47
2022/03/19 10:29:31;;;;;;;;;33.33;29.67;;;;;11.51;36.99;101780.72;6288095;20;3606682;-45
2022/03/19 10:32:07;;;;;;;;;51.00;39.00;;;;;11.42;36.63;101778.31;6286762;20;3632670;-45
2022/03/19 10:34:40;;;;;;;;;52.00;39.67;;;;;11.89;35.08;101784.00;6319090;20;2856560;-46
2022/03/19 10:37:09;;;;;;;;;30.33;26.67;;;;;11.90;33.63;101780.38;6318587;20;3585682;-45
2022/03/19 10:39:48;;;;;;;;;54.00;41.00;;;;;11.75;35.14;101780.84;6283302;20;2854612;-45
2022/03/19 10:42:18;;;;;;;;;52.00;37.67;;;;;10.77;35.71;101772.19;6286225;20;3637885;-47
2022/03/19 10:44:48;;;;;;;;;33.00;29.67;;;;;11.28;36.53;101764.41;6319190;20;3600220;-51
2022/03/19 10:47:23;;;;;;;;;39.50;34.50;;;;;11.49;35.73;101770.94;6287048;20;2833735;-47
2022/03/19 10:50:00;;;;;;;;;42.00;36.67;;;;;12.14;34.59;101769.69;6282620;20;2856593;-48
2022/03/19 10:52:30;;;;;;;;;43.00;36.67;;;;;11.55;34.47;101760.84;6321390;20;2859791;-48
2022/03/19 10:55:03;;;;;;;;;40.00;33.67;;;;;12.12;34.38;101758.97;6316652;20;3584740;-50
2022/03/19 10:57:33;;;;;;;;;48.00;36.00;;;;;11.61;33.57;101762.44;6316427;20;3631489;-51
2022/03/19 11:00:05;;;;;;;;;40.33;35.00;;;;;11.82;33.00;101758.16;6313680;20;2860709;-52
2022/03/19 11:02:33;;;;;;;;;35.33;32.00;;;;;12.22;31.70;101759.56;6319100;20;3586665;-47
2022/03/19 11:05:04;;;;;;;;;50.00;40.00;;;;;12.86;31.16;101756.31;6283067;20;3598140;-49
2022/03/19 11:07:34;;;;;;;;;35.67;31.67;;;;;11.68;31.58;101747.00;6316101;20;3602346;-52
2022/03/19 11:10:07;;;;;;;;;43.33;34.67;;;;;12.33;31.04;101743.88;6283669;20;3624170;-51
2022/03/19 11:12:42;;;;;;;;;45.00;35.00;;;;;13.12;30.89;101745.41;6314951;20;3623115;-49
2022/03/19 11:15:13;;;;;;;;;38.00;33.00;;;;;12.81;30.78;101740.31;6319585;20;3603367;-47
2022/03/19 11:17:46;;;;;;;;;31.67;30.00;;;;;12.88;29.25;101739.16;6284222;20;3598152;-51
2022/03/19 11:20:15;;;;;;;;;31.67;29.33;;;;;12.21;29.34;101739.78;6315145;20;3586659;-48
2022/03/19 11:22:53;;;;;;;;;32.00;30.00;;;;;12.27;29.90;101730.66;6283431;20;3602316;-49
2022/03/19 11:25:27;;;;;;;;;38.00;35.00;;;;;11.83;30.83;101720.44;6314071;20;2848205;-45
2022/03/19 11:28:07;;;;;;;;;33.67;31.67;;;;;12.50;31.04;101733.34;6287193;20;3603364;-46